aviador You're here:

KRDR Decoded Metar

RED RIVER in ND, USA
Report Time2018-01-23 04:56:00
UTC Time2018-01-23 05:29:30
Flight Rules mvfr MVFR
WindCalm
Visibility9999 m
Phenomena:N/A
Clouds:Overcast 016 Hf
Expected CloudBase > 1,200 ft AGL from Temp-Dew spread
Ceiling1,600 ft
Temp-5°C (ISA -18)
Dew Point-8°C (80% RH)
AAT-7.9°C
QNH1018 hPa
Density Alt-1,453 ft
Elevation912 ft
Report Wrong Elevation
Raw Report
KRDR 230456Z AUTO 00000KT 10SM OVC016 M05/M08 A3007 RMK AO2 SLP203
T10501083=

Extra information for KRDR:More info

Metar Taf Metar & Taf Last 4 Metars F.Rules Stats Wind Profile Meteogram Temp Stats Airport Information Weather charts Add Link Nearby VenuesMetar ALERT Operation Metar Decoded Social comments

AIRNAV info for KRDR